»·PEaware :: N83M KSNA-KFCH

N83M :: KSNA-KFCH

FLIGHT INFORMATION

Flight Status: Arrived
Operator: Privately registered:
United States
More flights under this callsign
Pilot: Russell M. (23594)
Aircraft: CESSNA 172 SKYHAWK
(C172)
More flights by this aircraft type
Origin: KSNA John Wayne-Orange Co
United States
Destination: KFCH Fresno-Chandler Downtown
United States
More flights between these airports :: More routes between these airports
Route: POM
File this flight plan on PilotEdge
Remarks:
Altitude:
(Current/Filed)
8,500ft
Speed:
(Current/Filed)
120kts
Departed: 21-Feb-21 07:58 PM
Arrived: 21-Feb-21 09:55 PM
Distance/Time
Traveled:
207nm/1:57
Distance/Time
To Go:
Arrived

Flight Plot

Page will automatically refresh every two minutes.

Flight plan parsing failed; only flown route is shown


Map Options




Map Legend


Flown Route
Filed Route
Departure Airport
Arrival Airport
Navaid (VOR, NDB)
Fix

Horizontal Profiles

Position Reports

Time Latitude Longitude Heading Altitude Ground
Speed
21-Feb-21 19:40 33.675315 -117.871283 355 52ft 0kts
21-Feb-21 19:41 33.675315 -117.871283 355 52ft 0kts
21-Feb-21 19:42 33.675315 -117.871283 355 52ft 0kts
21-Feb-21 19:43 33.675315 -117.871283 355 52ft 0kts
21-Feb-21 19:44 33.675315 -117.871283 355 52ft 0kts
21-Feb-21 19:45 33.675315 -117.871283 355 52ft 0kts
21-Feb-21 19:46 33.675315 -117.871283 355 52ft 0kts
21-Feb-21 19:47 33.675315 -117.871283 355 52ft 0kts
21-Feb-21 19:48 33.675315 -117.871283 355 52ft 0kts
21-Feb-21 19:49 33.675315 -117.871283 355 52ft 0kts
21-Feb-21 19:50 33.675315 -117.871283 355 52ft 0kts
21-Feb-21 19:51 33.675695 -117.870368 40 54ft 5kts
21-Feb-21 19:52 33.678018 -117.868884 26 50ft 10kts
21-Feb-21 19:53 33.680632 -117.867398 28 44ft 11kts
21-Feb-21 19:54 33.681223 -117.866471 114 43ft 0kts
21-Feb-21 19:55 33.681223 -117.866471 114 43ft 0kts
21-Feb-21 19:56 33.680890 -117.865778 141 43ft 8kts
21-Feb-21 19:57 33.668703 -117.872924 212 259ft 84kts
21-Feb-21 19:58 33.660905 -117.891378 344 963ft 85kts
21-Feb-21 19:59 33.683190 -117.898005 352 1766ft 79kts
21-Feb-21 20:00 33.704844 -117.904148 352 2352ft 90kts
21-Feb-21 20:01 33.732779 -117.911557 352 2395ft 109kts
21-Feb-21 20:02 33.761912 -117.907209 19 2518ft 104kts
21-Feb-21 20:03 33.788918 -117.897593 19 3029ft 98kts
21-Feb-21 20:04 33.814310 -117.888444 19 3630ft 93kts
21-Feb-21 20:05 33.838822 -117.879447 19 4232ft 91kts
21-Feb-21 20:06 33.862616 -117.870630 19 4832ft 88kts
21-Feb-21 20:07 33.886787 -117.861659 19 5330ft 92kts
21-Feb-21 20:09 33.911161 -117.852473 21 5828ft 91kts
21-Feb-21 20:10 33.935155 -117.843129 20 6317ft 90kts
21-Feb-21 20:11 33.959774 -117.833442 20 6491ft 110kts
21-Feb-21 20:12 33.984453 -117.823815 20 6502ft 112kts
21-Feb-21 20:13 34.013643 -117.812421 20 6509ft 111kts
21-Feb-21 20:14 34.040248 -117.802015 20 7004ft 94kts
21-Feb-21 20:15 34.062556 -117.790047 10 7515ft 89kts
21-Feb-21 20:16 34.086154 -117.792723 338 7979ft 91kts
21-Feb-21 20:17 34.108479 -117.809335 335 8357ft 96kts
21-Feb-21 20:18 34.132308 -117.826828 333 8500ft 109kts
21-Feb-21 20:19 34.157823 -117.845655 333 8499ft 106kts
21-Feb-21 20:20 34.182964 -117.864191 332 8531ft 110kts
21-Feb-21 20:21 34.209168 -117.883635 333 8510ft 110kts
21-Feb-21 20:22 34.236459 -117.903798 332 8526ft 118kts
21-Feb-21 20:23 34.263984 -117.924167 332 8466ft 109kts
21-Feb-21 20:24 34.289965 -117.943382 332 8536ft 112kts
21-Feb-21 20:25 34.316744 -117.963251 333 8543ft 113kts
21-Feb-21 20:26 34.342811 -117.982682 333 8513ft 104kts
21-Feb-21 20:27 34.368309 -118.001556 332 8535ft 112kts
21-Feb-21 20:28 34.394314 -118.020848 331 8643ft 112kts
21-Feb-21 20:29 34.421747 -118.041291 331 8623ft 115kts
21-Feb-21 20:29 34.444048 -118.057882 332 8629ft 111kts
21-Feb-21 20:31 34.475211 -118.081058 332 8580ft 118kts
21-Feb-21 20:31 34.498172 -118.098242 332 8500ft 114kts
21-Feb-21 20:33 34.529745 -118.121769 332 8509ft 117kts
21-Feb-21 20:34 34.557677 -118.142631 332 8494ft 117kts
21-Feb-21 20:35 34.585047 -118.163059 331 8504ft 115kts
21-Feb-21 20:36 34.612332 -118.183466 331 8497ft 114kts
21-Feb-21 20:36 34.634934 -118.200385 331 8499ft 114kts
21-Feb-21 20:37 34.662159 -118.220761 331 8504ft 114kts
21-Feb-21 20:38 34.689363 -118.241146 331 8509ft 115kts
21-Feb-21 20:40 34.721142 -118.264990 331 8509ft 115kts
21-Feb-21 20:41 34.748356 -118.285424 331 8509ft 113kts
21-Feb-21 20:41 34.770709 -118.302202 331 8509ft 113kts
21-Feb-21 20:42 34.797606 -118.322423 330 8509ft 113kts
21-Feb-21 20:43 34.824642 -118.342756 330 8509ft 114kts
21-Feb-21 20:45 34.850789 -118.375087 310 8509ft 116kts
21-Feb-21 20:45 34.867501 -118.401118 310 8508ft 117kts
21-Feb-21 20:46 34.887508 -118.432244 309 8521ft 116kts
21-Feb-21 20:47 34.907586 -118.463192 310 8528ft 117kts
21-Feb-21 20:48 34.927872 -118.494232 310 8529ft 117kts
21-Feb-21 20:49 34.948336 -118.525182 310 8529ft 117kts
21-Feb-21 20:50 34.969003 -118.555781 321 8533ft 116kts
21-Feb-21 20:51 34.998446 -118.573005 330 8534ft 118kts
21-Feb-21 20:52 35.027012 -118.593322 330 8523ft 117kts
21-Feb-21 20:53 35.055098 -118.613082 330 8535ft 117kts
21-Feb-21 20:55 35.088311 -118.636401 330 8529ft 118kts
21-Feb-21 20:55 35.111960 -118.653029 330 8529ft 117kts
21-Feb-21 20:56 35.140330 -118.672983 330 8528ft 118kts
21-Feb-21 20:57 35.169036 -118.693192 330 8529ft 119kts
21-Feb-21 20:58 35.197923 -118.713553 330 8530ft 120kts
21-Feb-21 20:59 35.226780 -118.733910 330 8531ft 120kts
21-Feb-21 21:00 35.255908 -118.754463 330 8533ft 121kts
21-Feb-21 21:01 35.285108 -118.775096 330 8534ft 121kts
21-Feb-21 21:02 35.314235 -118.795690 330 8534ft 120kts
21-Feb-21 21:03 35.343276 -118.816239 330 8534ft 120kts
21-Feb-21 21:04 35.372313 -118.836806 330 8514ft 121kts
21-Feb-21 21:05 35.401339 -118.857384 330 8500ft 120kts
21-Feb-21 21:06 35.430230 -118.877878 330 8500ft 119kts
21-Feb-21 21:07 35.458989 -118.898311 330 8500ft 119kts
21-Feb-21 21:08 35.487692 -118.918697 330 8500ft 119kts
21-Feb-21 21:09 35.516339 -118.939055 330 8500ft 119kts
21-Feb-21 21:10 35.544901 -118.959394 331 8500ft 118kts
21-Feb-21 21:11 35.573347 -118.979667 331 8499ft 118kts
21-Feb-21 21:12 35.601850 -118.999995 331 8501ft 118kts
21-Feb-21 21:13 35.630402 -119.020366 331 8500ft 118kts
21-Feb-21 21:14 35.658951 -119.040758 331 8505ft 118kts
21-Feb-21 21:15 35.687564 -119.061201 331 8508ft 119kts
21-Feb-21 21:16 35.716288 -119.081736 331 8509ft 119kts
21-Feb-21 21:17 35.745002 -119.102301 331 8509ft 119kts
21-Feb-21 21:18 35.773560 -119.122780 332 8509ft 118kts
21-Feb-21 21:19 35.802119 -119.143269 332 8509ft 118kts
21-Feb-21 21:20 35.830610 -119.163716 332 8509ft 118kts
21-Feb-21 21:21 35.859019 -119.184107 332 8509ft 118kts
21-Feb-21 21:22 35.887448 -119.204551 332 8492ft 118kts
21-Feb-21 21:23 35.915810 -119.224957 332 8490ft 117kts
21-Feb-21 21:24 35.943974 -119.245253 332 8499ft 117kts
21-Feb-21 21:25 35.970657 -119.264473 332 8500ft 116kts
21-Feb-21 21:26 35.987786 -119.276843 332 8500ft 116kts
21-Feb-21 21:27 36.015784 -119.297046 332 8500ft 116kts
21-Feb-21 21:28 36.043710 -119.317210 332 8507ft 115kts
21-Feb-21 21:29 36.071584 -119.337357 332 8509ft 116kts
21-Feb-21 21:30 36.099247 -119.357368 332 8539ft 115kts
21-Feb-21 21:31 36.127141 -119.377576 332 8514ft 117kts
21-Feb-21 21:32 36.155262 -119.397963 332 8501ft 116kts
21-Feb-21 21:33 36.183120 -119.418166 332 8501ft 116kts
21-Feb-21 21:34 36.211003 -119.438420 332 8501ft 116kts
21-Feb-21 21:35 36.238893 -119.458678 332 8501ft 116kts
21-Feb-21 21:36 36.266748 -119.478939 332 8501ft 116kts
21-Feb-21 21:37 36.295011 -119.499483 332 8284ft 121kts
21-Feb-21 21:38 36.324933 -119.521287 332 7683ft 125kts
21-Feb-21 21:39 36.356142 -119.541156 337 7081ft 126kts
21-Feb-21 21:40 36.388222 -119.560017 337 6392ft 128kts
21-Feb-21 21:41 36.420372 -119.578880 336 5690ft 127kts
21-Feb-21 21:42 36.452278 -119.597921 335 4988ft 127kts
21-Feb-21 21:43 36.483539 -119.618645 331 4287ft 127kts
21-Feb-21 21:44 36.513810 -119.640832 330 3529ft 124kts
21-Feb-21 21:45 36.543029 -119.662181 330 2866ft 120kts
21-Feb-21 21:46 36.571610 -119.682897 330 2311ft 116kts
21-Feb-21 21:47 36.598321 -119.702166 330 2067ft 103kts
21-Feb-21 21:48 36.624092 -119.720815 330 2059ft 114kts
21-Feb-21 21:49 36.650792 -119.740210 330 1996ft 109kts
21-Feb-21 21:50 36.675968 -119.758324 331 1647ft 102kts
21-Feb-21 21:51 36.699989 -119.776157 328 1215ft 96kts
21-Feb-21 21:52 36.717457 -119.794951 306 766ft 72kts
21-Feb-21 21:53 36.728765 -119.814523 306 358ft 68kts
21-Feb-21 21:54 36.732853 -119.822302 270 286ft 0kts
21-Feb-21 21:55 36.731962 -119.823005 43 281ft 0kts
21-Feb-21 21:56 36.731962 -119.823005 43 281ft 0kts
21-Feb-21 21:57 36.731962 -119.823005 43 281ft 0kts

Navigation Log

Ident Type
Flight plan parsing failed, navigation log unavailable